createdAt,value
2023-06-16T01:05:36.520Z,12.52
2023-06-16T01:08:07.126Z,12.26
2023-06-16T01:10:35.261Z,12.47
2023-06-16T01:13:07.397Z,12.63
2023-06-16T01:15:35.129Z,12.55
2023-06-16T01:18:03.029Z,12.43
2023-06-16T01:20:32.259Z,12.41
2023-06-16T01:23:03.565Z,12.56
2023-06-16T01:25:33.235Z,12.04
2023-06-16T01:28:01.798Z,11.48
2023-06-16T01:30:31.379Z,11.93
2023-06-16T01:32:59.321Z,11.69
2023-06-16T01:35:29.016Z,11.51
2023-06-16T01:37:56.692Z,11.78
2023-06-16T01:40:24.396Z,12.03
2023-06-16T01:42:54.807Z,12.09
2023-06-16T01:45:22.626Z,12.07
2023-06-16T01:47:50.530Z,12.27
2023-06-16T01:50:18.548Z,12.44
2023-06-16T01:52:46.476Z,12.58
2023-06-16T01:55:14.155Z,12.53
2023-06-16T01:57:44.120Z,12.68
2023-06-16T02:00:14.941Z,12.64
2023-06-16T02:02:44.368Z,12.48
2023-06-16T02:57:22.892Z,11.36
2023-06-16T02:59:51.257Z,11.04
2023-06-16T03:02:19.834Z,11.32
2023-06-16T03:04:54.229Z,10.82
2023-06-16T03:07:25.893Z,10.72
2023-06-16T03:09:53.657Z,10.90
2023-06-16T03:12:26.080Z,10.66
2023-06-16T03:15:00.980Z,11.04
2023-06-16T03:17:28.774Z,10.94
2023-06-16T03:19:56.586Z,10.68
2023-06-16T03:22:33.650Z,10.76
2023-06-16T03:25:04.155Z,10.78
2023-06-16T03:27:38.579Z,10.79
2023-06-16T03:30:07.006Z,10.87
2023-06-16T03:32:51.600Z,11.22
2023-06-16T03:35:19.967Z,10.92
2023-06-16T03:37:48.403Z,11.31
2023-06-16T03:40:18.613Z,10.88
2023-06-16T03:42:48.149Z,11.83
2023-06-16T03:45:16.182Z,11.90
2023-06-16T03:47:44.112Z,12.35
2023-06-16T03:50:11.998Z,11.98
2023-06-16T03:52:43.320Z,12.59
2023-06-16T03:55:11.597Z,11.84
2023-06-16T03:57:39.791Z,12.00
2023-06-16T04:00:11.076Z,11.72
2023-06-16T04:02:48.221Z,12.02
2023-06-16T04:25:49.278Z,11.64
2023-06-16T05:48:13.379Z,14.30
2023-06-16T05:50:41.781Z,14.34
2023-06-16T05:53:09.762Z,14.23
2023-06-16T05:55:40.882Z,14.33
2023-06-16T05:58:09.063Z,13.95
2023-06-16T06:00:36.721Z,14.28
2023-06-16T06:03:13.449Z,14.63
2023-06-16T06:05:41.195Z,14.63
2023-06-16T06:08:11.427Z,15.01
2023-06-16T06:10:41.179Z,14.75
2023-06-16T06:13:08.823Z,14.77
2023-06-16T06:15:39.229Z,14.76
2023-06-16T06:18:11.253Z,14.77
2023-06-16T06:20:43.082Z,15.11
2023-06-16T06:23:10.822Z,15.31
2023-06-16T06:25:41.329Z,15.55
2023-06-16T06:28:10.227Z,15.60
2023-06-16T06:30:38.979Z,15.26
2023-06-16T06:33:06.830Z,15.69
2023-06-16T06:35:34.635Z,15.52
2023-06-16T06:38:04.209Z,15.73
2023-06-16T06:40:33.207Z,15.65
2023-06-16T06:43:02.628Z,16.14
2023-06-16T06:45:43.831Z,15.61
2023-06-16T06:48:11.471Z,15.47
2023-06-16T06:50:40.561Z,15.57
2023-06-16T06:53:10.085Z,15.86
2023-06-16T06:55:37.684Z,16.13
2023-06-16T06:58:05.276Z,16.21
2023-06-16T07:00:32.873Z,16.20
2023-06-16T07:03:00.974Z,16.36
2023-06-16T07:05:28.893Z,16.50
2023-06-16T07:07:56.512Z,16.50
2023-06-16T07:10:25.443Z,16.81
2023-06-16T07:12:52.979Z,16.92
2023-06-16T07:15:20.676Z,16.78
2023-06-16T07:17:48.274Z,16.99
2023-06-16T07:20:16.064Z,17.38
2023-06-16T07:22:46.178Z,17.46
2023-06-16T07:25:13.878Z,17.27
2023-06-16T07:27:44.392Z,17.28
2023-06-16T07:30:12.566Z,17.07
2023-06-16T07:32:40.617Z,17.25
2023-06-16T07:35:09.485Z,17.77
2023-06-16T07:37:37.172Z,17.33
2023-06-16T07:40:08.215Z,17.27
2023-06-16T07:42:35.905Z,17.18
2023-06-16T07:45:05.256Z,17.59
2023-06-16T07:47:32.865Z,17.32
2023-06-16T07:50:00.584Z,17.03
2023-06-16T07:52:28.237Z,17.48
2023-06-16T07:54:56.337Z,17.52
2023-06-16T07:57:23.948Z,17.27
2023-06-16T07:59:51.875Z,17.59
2023-06-16T08:02:20.860Z,17.86
2023-06-16T08:04:48.573Z,17.95
2023-06-16T08:07:16.170Z,18.30
2023-06-16T08:09:44.038Z,18.18
2023-06-16T08:12:12.212Z,17.40
2023-06-16T08:14:39.852Z,17.53
2023-06-16T08:17:07.799Z,17.47
2023-06-16T19:49:43.270Z,16.35
2023-06-16T19:52:10.922Z,16.20
2023-06-16T19:54:38.820Z,15.91
2023-06-16T19:57:06.861Z,16.06
2023-06-16T19:59:34.962Z,16.04
2023-06-16T20:02:02.885Z,16.22
2023-06-16T20:04:31.222Z,16.04
2023-06-16T20:07:01.296Z,16.00
2023-06-16T20:09:29.033Z,15.96
2023-06-16T20:11:56.786Z,16.17
2023-06-16T20:14:27.880Z,15.98
2023-06-16T20:16:57.225Z,15.83
2023-06-16T20:19:25.976Z,16.09
2023-06-16T20:21:53.548Z,15.94
2023-06-16T20:24:22.950Z,15.74
2023-06-16T20:26:50.753Z,16.06
2023-06-16T20:29:18.585Z,15.99
2023-06-16T20:31:46.519Z,16.05
2023-06-16T20:34:14.115Z,16.29
2023-06-16T20:36:46.200Z,16.29
2023-06-16T20:39:15.747Z,16.27
2023-06-16T20:41:44.812Z,16.18
2023-06-16T20:44:12.741Z,16.00
2023-06-16T20:46:40.484Z,15.89
2023-06-16T20:49:10.162Z,15.21
2023-06-16T20:51:38.053Z,15.18
2023-06-16T20:54:05.903Z,15.17
2023-06-16T20:56:34.381Z,15.47
2023-06-16T20:59:03.612Z,15.31
2023-06-16T21:01:40.823Z,15.35
2023-06-16T21:04:13.201Z,15.57
2023-06-16T21:06:41.615Z,15.49
2023-06-16T21:09:10.768Z,15.14
2023-06-16T21:11:38.502Z,14.88
2023-06-16T21:14:07.694Z,15.03
2023-06-16T21:16:37.557Z,15.19
2023-06-16T21:19:06.181Z,15.25
2023-06-16T21:21:33.956Z,15.11
2023-06-16T21:24:01.857Z,15.28
2023-06-16T21:26:29.538Z,15.26
2023-06-16T21:28:57.174Z,15.28
2023-06-16T21:31:26.105Z,15.31
2023-06-16T21:33:53.718Z,15.31
2023-06-16T21:36:21.407Z,15.48
2023-06-16T21:38:56.149Z,15.33
2023-06-16T21:41:25.193Z,15.19
2023-06-16T21:43:52.845Z,15.36
2023-06-16T21:46:20.807Z,15.26
2023-06-16T21:48:49.924Z,15.01
2023-06-16T21:51:17.530Z,14.80
2023-06-16T21:53:45.179Z,14.81
2023-06-16T21:56:12.830Z,14.99
2023-06-16T21:58:40.690Z,15.15
2023-06-16T22:01:08.466Z,15.12
2023-06-16T22:03:36.152Z,15.21
2023-06-16T22:06:05.642Z,15.18
2023-06-16T22:08:33.290Z,15.22
2023-06-16T22:11:01.656Z,15.37
2023-06-16T22:13:30.067Z,15.33
2023-06-16T22:16:11.632Z,15.04
2023-06-16T22:18:39.208Z,14.86
2023-06-16T22:21:08.174Z,14.96
2023-06-16T22:23:35.912Z,14.93
2023-06-16T22:26:04.326Z,14.88
2023-06-16T22:28:34.079Z,14.78
2023-06-16T22:31:01.820Z,14.51
2023-06-16T22:33:30.651Z,14.34
2023-06-16T22:35:58.239Z,14.46
2023-06-16T22:38:27.224Z,14.30
2023-06-16T22:40:54.794Z,14.21
2023-06-16T22:43:22.386Z,14.60
2023-06-16T22:45:50.025Z,14.64
2023-06-16T22:48:17.703Z,14.56
2023-06-16T22:50:48.128Z,14.52
2023-06-16T22:53:15.875Z,14.41
2023-06-16T22:55:44.988Z,14.13
2023-06-16T22:58:12.569Z,14.44
2023-06-16T23:00:40.175Z,14.84
2023-06-16T23:03:07.841Z,14.84
2023-06-16T23:05:35.740Z,14.87
2023-06-16T23:08:03.349Z,14.96
2023-06-16T23:10:31.018Z,14.96
2023-06-16T23:13:00.139Z,14.92
2023-06-16T23:15:27.707Z,14.95
2023-06-16T23:17:55.381Z,14.56
2023-06-16T23:20:23.108Z,14.64
2023-06-16T23:22:51.351Z,15.05
2023-06-16T23:25:21.349Z,14.22
2023-06-16T23:27:50.424Z,14.34
2023-06-16T23:30:19.787Z,14.80
2023-06-16T23:32:48.209Z,15.01
2023-06-16T23:35:16.129Z,14.77
2023-06-16T23:37:43.895Z,14.74
2023-06-16T23:40:11.877Z,14.58
2023-06-16T23:42:39.512Z,14.72
2023-06-16T23:45:07.770Z,14.75
2023-06-16T23:47:36.830Z,15.05
2023-06-16T23:50:04.569Z,15.04
2023-06-16T23:52:33.454Z,14.60
2023-06-16T23:55:01.027Z,14.54
2023-06-16T23:57:29.825Z,14.77
2023-06-16T23:59:57.629Z,14.42
